sensor_id;sensor_type;location;lat;lon;timestamp;P1;durP1;ratioP1;P2;durP2;ratioP2
38312;SDS011;24114;52.260;6.714;2023-11-21T00:01:48;28.38;;;16.83;;
38312;SDS011;24114;52.260;6.714;2023-11-21T00:04:16;34.05;;;18.05;;
38312;SDS011;24114;52.260;6.714;2023-11-21T00:06:43;34.10;;;17.85;;
38312;SDS011;24114;52.260;6.714;2023-11-21T00:09:13;30.88;;;16.80;;
38312;SDS011;24114;52.260;6.714;2023-11-21T00:11:41;30.55;;;17.17;;
38312;SDS011;24114;52.260;6.714;2023-11-21T00:14:10;28.20;;;16.40;;
38312;SDS011;24114;52.260;6.714;2023-11-21T00:16:38;30.95;;;17.40;;
38312;SDS011;24114;52.260;6.714;2023-11-21T00:19:07;27.90;;;16.88;;
38312;SDS011;24114;52.260;6.714;2023-11-21T00:21:35;30.98;;;17.85;;
38312;SDS011;24114;52.260;6.714;2023-11-21T00:24:03;31.15;;;17.80;;
38312;SDS011;24114;52.260;6.714;2023-11-21T00:26:31;37.00;;;20.60;;
38312;SDS011;24114;52.260;6.714;2023-11-21T00:29:03;32.08;;;18.17;;
38312;SDS011;24114;52.260;6.714;2023-11-21T00:31:34;37.45;;;19.92;;
38312;SDS011;24114;52.260;6.714;2023-11-21T00:34:02;36.55;;;19.30;;
38312;SDS011;24114;52.260;6.714;2023-11-21T00:36:32;37.58;;;20.85;;
38312;SDS011;24114;52.260;6.714;2023-11-21T00:39:00;39.38;;;21.08;;
38312;SDS011;24114;52.260;6.714;2023-11-21T00:41:29;33.70;;;20.02;;
38312;SDS011;24114;52.260;6.714;2023-11-21T00:43:57;38.03;;;21.80;;
38312;SDS011;24114;52.260;6.714;2023-11-21T00:46:25;37.67;;;21.45;;
38312;SDS011;24114;52.260;6.714;2023-11-21T00:48:53;39.17;;;21.50;;
38312;SDS011;24114;52.260;6.714;2023-11-21T00:51:21;37.33;;;20.95;;
38312;SDS011;24114;52.260;6.714;2023-11-21T00:53:50;40.10;;;22.05;;
38312;SDS011;24114;52.260;6.714;2023-11-21T00:56:18;38.30;;;21.95;;
38312;SDS011;24114;52.260;6.714;2023-11-21T00:58:46;38.78;;;21.65;;
38312;SDS011;24114;52.260;6.714;2023-11-21T01:01:16;39.55;;;21.40;;
38312;SDS011;24114;52.260;6.714;2023-11-21T01:03:45;38.88;;;21.35;;
38312;SDS011;24114;52.260;6.714;2023-11-21T01:06:13;38.07;;;21.30;;
38312;SDS011;24114;52.260;6.714;2023-11-21T01:08:41;40.97;;;22.45;;
38312;SDS011;24114;52.260;6.714;2023-11-21T01:11:12;41.60;;;22.75;;
38312;SDS011;24114;52.260;6.714;2023-11-21T01:13:40;50.88;;;24.98;;
38312;SDS011;24114;52.260;6.714;2023-11-21T01:16:08;45.88;;;24.23;;
38312;SDS011;24114;52.260;6.714;2023-11-21T01:18:36;44.58;;;23.55;;
38312;SDS011;24114;52.260;6.714;2023-11-21T01:21:04;45.22;;;23.80;;
38312;SDS011;24114;52.260;6.714;2023-11-21T01:23:33;44.47;;;24.08;;
38312;SDS011;24114;52.260;6.714;2023-11-21T01:26:01;54.92;;;25.85;;
38312;SDS011;24114;52.260;6.714;2023-11-21T01:28:31;44.30;;;24.38;;
38312;SDS011;24114;52.260;6.714;2023-11-21T01:30:59;49.08;;;26.25;;
38312;SDS011;24114;52.260;6.714;2023-11-21T01:33:27;41.42;;;24.25;;
38312;SDS011;24114;52.260;6.714;2023-11-21T01:35:54;42.95;;;24.58;;
38312;SDS011;24114;52.260;6.714;2023-11-21T01:38:22;43.87;;;25.00;;
38312;SDS011;24114;52.260;6.714;2023-11-21T01:40:50;41.92;;;25.55;;
38312;SDS011;24114;52.260;6.714;2023-11-21T01:43:18;50.80;;;26.20;;
38312;SDS011;24114;52.260;6.714;2023-11-21T01:45:47;45.28;;;24.80;;
38312;SDS011;24114;52.260;6.714;2023-11-21T01:48:15;46.00;;;25.38;;
38312;SDS011;24114;52.260;6.714;2023-11-21T01:50:43;48.85;;;25.77;;
38312;SDS011;24114;52.260;6.714;2023-11-21T01:53:11;50.92;;;26.00;;
38312;SDS011;24114;52.260;6.714;2023-11-21T01:55:40;44.63;;;25.23;;
38312;SDS011;24114;52.260;6.714;2023-11-21T01:58:10;46.88;;;25.98;;
38312;SDS011;24114;52.260;6.714;2023-11-21T02:00:38;52.45;;;26.00;;
38312;SDS011;24114;52.260;6.714;2023-11-21T02:03:08;47.20;;;25.73;;
38312;SDS011;24114;52.260;6.714;2023-11-21T02:05:36;43.20;;;24.90;;
38312;SDS011;24114;52.260;6.714;2023-11-21T02:08:04;44.33;;;24.88;;
38312;SDS011;24114;52.260;6.714;2023-11-21T02:10:32;49.35;;;25.42;;
38312;SDS011;24114;52.260;6.714;2023-11-21T02:13:00;47.75;;;26.40;;
38312;SDS011;24114;52.260;6.714;2023-11-21T02:15:29;48.92;;;25.77;;
38312;SDS011;24114;52.260;6.714;2023-11-21T02:17:57;53.42;;;27.38;;
38312;SDS011;24114;52.260;6.714;2023-11-21T02:20:28;44.78;;;25.38;;
38312;SDS011;24114;52.260;6.714;2023-11-21T02:22:57;43.63;;;25.10;;
38312;SDS011;24114;52.260;6.714;2023-11-21T02:25:27;50.78;;;26.25;;
38312;SDS011;24114;52.260;6.714;2023-11-21T02:27:56;45.85;;;24.92;;
38312;SDS011;24114;52.260;6.714;2023-11-21T02:30:24;48.15;;;25.38;;
38312;SDS011;24114;52.260;6.714;2023-11-21T02:32:54;50.35;;;25.33;;
38312;SDS011;24114;52.260;6.714;2023-11-21T02:35:23;52.10;;;25.73;;
38312;SDS011;24114;52.260;6.714;2023-11-21T02:37:52;49.70;;;25.13;;
38312;SDS011;24114;52.260;6.714;2023-11-21T02:40:22;52.42;;;25.98;;
38312;SDS011;24114;52.260;6.714;2023-11-21T02:42:52;49.47;;;26.70;;
38312;SDS011;24114;52.260;6.714;2023-11-21T02:45:20;49.92;;;26.35;;
38312;SDS011;24114;52.260;6.714;2023-11-21T02:47:48;47.40;;;25.38;;
38312;SDS011;24114;52.260;6.714;2023-11-21T02:50:16;43.40;;;24.38;;
38312;SDS011;24114;52.260;6.714;2023-11-21T02:52:45;49.83;;;25.48;;
38312;SDS011;24114;52.260;6.714;2023-11-21T02:55:13;43.30;;;24.33;;
38312;SDS011;24114;52.260;6.714;2023-11-21T02:57:43;45.85;;;25.35;;
38312;SDS011;24114;52.260;6.714;2023-11-21T03:00:11;43.33;;;24.00;;
38312;SDS011;24114;52.260;6.714;2023-11-21T03:02:41;43.05;;;24.42;;
38312;SDS011;24114;52.260;6.714;2023-11-21T03:05:10;46.60;;;25.00;;
38312;SDS011;24114;52.260;6.714;2023-11-21T03:07:38;47.03;;;25.50;;
38312;SDS011;24114;52.260;6.714;2023-11-21T03:10:07;47.20;;;26.00;;
38312;SDS011;24114;52.260;6.714;2023-11-21T03:12:37;47.55;;;25.63;;
38312;SDS011;24114;52.260;6.714;2023-11-21T03:15:07;46.07;;;25.10;;
38312;SDS011;24114;52.260;6.714;2023-11-21T03:17:36;44.97;;;25.58;;
38312;SDS011;24114;52.260;6.714;2023-11-21T03:20:04;52.65;;;26.23;;
38312;SDS011;24114;52.260;6.714;2023-11-21T03:22:37;51.33;;;26.63;;
38312;SDS011;24114;52.260;6.714;2023-11-21T03:25:05;48.20;;;25.48;;
38312;SDS011;24114;52.260;6.714;2023-11-21T03:27:36;44.05;;;25.13;;
38312;SDS011;24114;52.260;6.714;2023-11-21T03:30:07;44.07;;;25.40;;
38312;SDS011;24114;52.260;6.714;2023-11-21T03:32:36;48.15;;;26.42;;
38312;SDS011;24114;52.260;6.714;2023-11-21T03:35:04;50.55;;;26.10;;
38312;SDS011;24114;52.260;6.714;2023-11-21T03:37:33;49.45;;;26.15;;
38312;SDS011;24114;52.260;6.714;2023-11-21T03:40:00;42.05;;;24.88;;
38312;SDS011;24114;52.260;6.714;2023-11-21T03:42:30;46.45;;;25.50;;
38312;SDS011;24114;52.260;6.714;2023-11-21T03:44:58;42.13;;;24.42;;
38312;SDS011;24114;52.260;6.714;2023-11-21T03:47:27;49.05;;;25.95;;
38312;SDS011;24114;52.260;6.714;2023-11-21T03:49:55;48.63;;;25.70;;
38312;SDS011;24114;52.260;6.714;2023-11-21T03:52:23;48.92;;;25.65;;
38312;SDS011;24114;52.260;6.714;2023-11-21T03:54:51;45.42;;;25.88;;
38312;SDS011;24114;52.260;6.714;2023-11-21T03:57:19;46.80;;;26.27;;
38312;SDS011;24114;52.260;6.714;2023-11-21T03:59:47;50.40;;;26.50;;
38312;SDS011;24114;52.260;6.714;2023-11-21T04:02:15;53.83;;;27.92;;
38312;SDS011;24114;52.260;6.714;2023-11-21T04:04:45;49.60;;;26.77;;
38312;SDS011;24114;52.260;6.714;2023-11-21T04:07:13;54.17;;;28.10;;
38312;SDS011;24114;52.260;6.714;2023-11-21T04:09:41;48.17;;;26.58;;
38312;SDS011;24114;52.260;6.714;2023-11-21T04:12:09;47.10;;;25.38;;
38312;SDS011;24114;52.260;6.714;2023-11-21T04:14:36;48.30;;;26.65;;
38312;SDS011;24114;52.260;6.714;2023-11-21T04:17:04;51.25;;;27.25;;
38312;SDS011;24114;52.260;6.714;2023-11-21T04:19:32;54.25;;;27.77;;
38312;SDS011;24114;52.260;6.714;2023-11-21T04:22:01;55.90;;;28.05;;
38312;SDS011;24114;52.260;6.714;2023-11-21T04:24:30;59.92;;;27.80;;
38312;SDS011;24114;52.260;6.714;2023-11-21T04:26:58;55.03;;;28.27;;
38312;SDS011;24114;52.260;6.714;2023-11-21T04:29:25;53.58;;;27.13;;
38312;SDS011;24114;52.260;6.714;2023-11-21T04:31:53;48.35;;;26.13;;
38312;SDS011;24114;52.260;6.714;2023-11-21T04:34:21;58.22;;;28.08;;
38312;SDS011;24114;52.260;6.714;2023-11-21T04:36:49;55.50;;;27.75;;
38312;SDS011;24114;52.260;6.714;2023-11-21T04:39:18;54.05;;;27.50;;
38312;SDS011;24114;52.260;6.714;2023-11-21T04:41:46;58.33;;;28.30;;
38312;SDS011;24114;52.260;6.714;2023-11-21T04:44:14;57.40;;;27.88;;
38312;SDS011;24114;52.260;6.714;2023-11-21T04:46:42;53.65;;;27.88;;
38312;SDS011;24114;52.260;6.714;2023-11-21T04:49:10;53.45;;;27.83;;
38312;SDS011;24114;52.260;6.714;2023-11-21T04:51:38;56.38;;;28.00;;
38312;SDS011;24114;52.260;6.714;2023-11-21T04:54:06;61.85;;;29.15;;
38312;SDS011;24114;52.260;6.714;2023-11-21T04:56:35;59.72;;;29.10;;
38312;SDS011;24114;52.260;6.714;2023-11-21T04:59:03;66.10;;;29.95;;
38312;SDS011;24114;52.260;6.714;2023-11-21T05:01:31;60.47;;;28.83;;
38312;SDS011;24114;52.260;6.714;2023-11-21T05:03:59;68.20;;;30.80;;
38312;SDS011;24114;52.260;6.714;2023-11-21T05:06:26;66.00;;;29.60;;
38312;SDS011;24114;52.260;6.714;2023-11-21T05:08:54;62.28;;;28.58;;
38312;SDS011;24114;52.260;6.714;2023-11-21T05:11:25;63.35;;;30.95;;
38312;SDS011;24114;52.260;6.714;2023-11-21T05:13:54;84.50;;;31.33;;
38312;SDS011;24114;52.260;6.714;2023-11-21T05:16:25;68.03;;;30.67;;
38312;SDS011;24114;52.260;6.714;2023-11-21T05:18:54;75.27;;;30.83;;
38312;SDS011;24114;52.260;6.714;2023-11-21T05:21:26;56.08;;;29.23;;
38312;SDS011;24114;52.260;6.714;2023-11-21T05:23:55;83.32;;;31.60;;
38312;SDS011;24114;52.260;6.714;2023-11-21T05:26:23;85.72;;;32.10;;
38312;SDS011;24114;52.260;6.714;2023-11-21T05:28:51;75.60;;;31.42;;
38312;SDS011;24114;52.260;6.714;2023-11-21T05:31:20;65.32;;;30.55;;
38312;SDS011;24114;52.260;6.714;2023-11-21T05:33:48;74.25;;;31.25;;
38312;SDS011;24114;52.260;6.714;2023-11-21T05:36:16;81.13;;;32.00;;
38312;SDS011;24114;52.260;6.714;2023-11-21T05:38:43;65.53;;;31.00;;
38312;SDS011;24114;52.260;6.714;2023-11-21T05:41:12;76.37;;;31.43;;
38312;SDS011;24114;52.260;6.714;2023-11-21T05:43:40;59.85;;;28.92;;
38312;SDS011;24114;52.260;6.714;2023-11-21T05:46:08;57.80;;;29.15;;
38312;SDS011;24114;52.260;6.714;2023-11-21T05:48:37;73.35;;;30.13;;
38312;SDS011;24114;52.260;6.714;2023-11-21T05:51:06;62.88;;;29.48;;
38312;SDS011;24114;52.260;6.714;2023-11-21T05:53:34;70.35;;;30.70;;
38312;SDS011;24114;52.260;6.714;2023-11-21T05:56:02;55.90;;;28.60;;
38312;SDS011;24114;52.260;6.714;2023-11-21T05:58:30;54.95;;;28.63;;
38312;SDS011;24114;52.260;6.714;2023-11-21T06:00:58;61.20;;;29.40;;
38312;SDS011;24114;52.260;6.714;2023-11-21T06:03:26;65.93;;;29.02;;
38312;SDS011;24114;52.260;6.714;2023-11-21T06:05:55;63.88;;;29.17;;
38312;SDS011;24114;52.260;6.714;2023-11-21T06:08:23;59.13;;;29.35;;
38312;SDS011;24114;52.260;6.714;2023-11-21T06:10:51;65.90;;;30.05;;
38312;SDS011;24114;52.260;6.714;2023-11-21T06:13:19;68.80;;;30.27;;
38312;SDS011;24114;52.260;6.714;2023-11-21T06:15:50;60.65;;;30.00;;
38312;SDS011;24114;52.260;6.714;2023-11-21T06:18:19;56.85;;;29.08;;
38312;SDS011;24114;52.260;6.714;2023-11-21T06:20:46;56.58;;;29.23;;
38312;SDS011;24114;52.260;6.714;2023-11-21T06:23:15;64.47;;;29.27;;
38312;SDS011;24114;52.260;6.714;2023-11-21T06:25:43;58.13;;;29.52;;
38312;SDS011;24114;52.260;6.714;2023-11-21T06:28:11;68.05;;;31.00;;
38312;SDS011;24114;52.260;6.714;2023-11-21T06:30:39;61.00;;;29.50;;
38312;SDS011;24114;52.260;6.714;2023-11-21T06:33:08;51.65;;;28.52;;
38312;SDS011;24114;52.260;6.714;2023-11-21T06:35:36;52.65;;;28.77;;
38312;SDS011;24114;52.260;6.714;2023-11-21T06:38:04;52.60;;;28.65;;
38312;SDS011;24114;52.260;6.714;2023-11-21T06:40:33;67.00;;;29.70;;
38312;SDS011;24114;52.260;6.714;2023-11-21T06:43:01;60.15;;;29.77;;
38312;SDS011;24114;52.260;6.714;2023-11-21T06:45:31;63.97;;;30.77;;
38312;SDS011;24114;52.260;6.714;2023-11-21T06:48:00;66.45;;;31.17;;
38312;SDS011;24114;52.260;6.714;2023-11-21T06:50:28;63.60;;;30.60;;
38312;SDS011;24114;52.260;6.714;2023-11-21T06:52:56;61.40;;;29.40;;
38312;SDS011;24114;52.260;6.714;2023-11-21T06:55:23;50.95;;;27.55;;
38312;SDS011;24114;52.260;6.714;2023-11-21T06:57:53;61.93;;;29.47;;
38312;SDS011;24114;52.260;6.714;2023-11-21T07:00:20;55.63;;;28.30;;
38312;SDS011;24114;52.260;6.714;2023-11-21T07:02:48;53.25;;;28.52;;
38312;SDS011;24114;52.260;6.714;2023-11-21T07:05:16;50.90;;;27.45;;
38312;SDS011;24114;52.260;6.714;2023-11-21T07:07:47;51.88;;;27.40;;
38312;SDS011;24114;52.260;6.714;2023-11-21T07:10:15;73.63;;;38.45;;
38312;SDS011;24114;52.260;6.714;2023-11-21T07:12:44;60.42;;;33.42;;
38312;SDS011;24114;52.260;6.714;2023-11-21T07:15:13;56.78;;;30.38;;
38312;SDS011;24114;52.260;6.714;2023-11-21T07:17:41;51.00;;;28.52;;
38312;SDS011;24114;52.260;6.714;2023-11-21T07:20:10;55.78;;;28.90;;
38312;SDS011;24114;52.260;6.714;2023-11-21T07:22:38;49.92;;;27.58;;
38312;SDS011;24114;52.260;6.714;2023-11-21T07:25:07;50.72;;;27.85;;
38312;SDS011;24114;52.260;6.714;2023-11-21T07:27:35;51.15;;;27.73;;
38312;SDS011;24114;52.260;6.714;2023-11-21T07:30:04;53.13;;;27.83;;
38312;SDS011;24114;52.260;6.714;2023-11-21T07:32:35;47.67;;;27.15;;
38312;SDS011;24114;52.260;6.714;2023-11-21T07:35:04;52.83;;;28.55;;
38312;SDS011;24114;52.260;6.714;2023-11-21T07:37:32;46.33;;;27.83;;
38312;SDS011;24114;52.260;6.714;2023-11-21T07:39:59;49.67;;;27.70;;
38312;SDS011;24114;52.260;6.714;2023-11-21T07:42:27;48.50;;;27.05;;
38312;SDS011;24114;52.260;6.714;2023-11-21T07:44:55;51.28;;;27.00;;
38312;SDS011;24114;52.260;6.714;2023-11-21T07:47:23;54.47;;;27.40;;
38312;SDS011;24114;52.260;6.714;2023-11-21T07:49:55;51.83;;;27.70;;
38312;SDS011;24114;52.260;6.714;2023-11-21T07:52:23;45.58;;;26.63;;
38312;SDS011;24114;52.260;6.714;2023-11-21T07:54:51;40.05;;;24.17;;
38312;SDS011;24114;52.260;6.714;2023-11-21T07:57:19;45.33;;;25.73;;
38312;SDS011;24114;52.260;6.714;2023-11-21T07:59:46;46.70;;;25.87;;
38312;SDS011;24114;52.260;6.714;2023-11-21T08:02:14;45.90;;;25.95;;
38312;SDS011;24114;52.260;6.714;2023-11-21T08:04:42;47.05;;;25.92;;
38312;SDS011;24114;52.260;6.714;2023-11-21T08:07:12;46.15;;;25.27;;
38312;SDS011;24114;52.260;6.714;2023-11-21T08:09:40;52.33;;;26.73;;
38312;SDS011;24114;52.260;6.714;2023-11-21T08:12:08;48.70;;;26.90;;
38312;SDS011;24114;52.260;6.714;2023-11-21T08:14:37;50.60;;;27.15;;
38312;SDS011;24114;52.260;6.714;2023-11-21T08:17:06;55.87;;;27.53;;
38312;SDS011;24114;52.260;6.714;2023-11-21T08:19:36;48.40;;;26.90;;
38312;SDS011;24114;52.260;6.714;2023-11-21T08:22:04;44.88;;;25.92;;
38312;SDS011;24114;52.260;6.714;2023-11-21T08:24:35;48.70;;;26.57;;
38312;SDS011;24114;52.260;6.714;2023-11-21T08:27:03;45.17;;;26.20;;
38312;SDS011;24114;52.260;6.714;2023-11-21T08:29:32;48.75;;;26.00;;
38312;SDS011;24114;52.260;6.714;2023-11-21T08:32:02;50.45;;;27.58;;
38312;SDS011;24114;52.260;6.714;2023-11-21T08:34:31;54.45;;;28.30;;
38312;SDS011;24114;52.260;6.714;2023-11-21T08:36:59;52.03;;;29.08;;
38312;SDS011;24114;52.260;6.714;2023-11-21T08:39:27;49.10;;;25.77;;
38312;SDS011;24114;52.260;6.714;2023-11-21T08:41:58;54.10;;;28.10;;
38312;SDS011;24114;52.260;6.714;2023-11-21T08:44:26;49.13;;;26.75;;
38312;SDS011;24114;52.260;6.714;2023-11-21T08:46:53;57.40;;;29.27;;
38312;SDS011;24114;52.260;6.714;2023-11-21T08:49:21;55.28;;;29.17;;
38312;SDS011;24114;52.260;6.714;2023-11-21T08:51:49;51.72;;;27.90;;
38312;SDS011;24114;52.260;6.714;2023-11-21T08:54:17;54.05;;;28.33;;
38312;SDS011;24114;52.260;6.714;2023-11-21T08:56:44;53.35;;;27.23;;
38312;SDS011;24114;52.260;6.714;2023-11-21T08:59:14;49.10;;;26.88;;
38312;SDS011;24114;52.260;6.714;2023-11-21T09:01:41;56.42;;;29.08;;
38312;SDS011;24114;52.260;6.714;2023-11-21T09:04:09;51.43;;;27.03;;
38312;SDS011;24114;52.260;6.714;2023-11-21T09:06:37;52.53;;;27.58;;
38312;SDS011;24114;52.260;6.714;2023-11-21T09:09:06;51.72;;;26.55;;
38312;SDS011;24114;52.260;6.714;2023-11-21T09:11:34;55.88;;;28.45;;
38312;SDS011;24114;52.260;6.714;2023-11-21T09:14:02;54.57;;;27.73;;
38312;SDS011;24114;52.260;6.714;2023-11-21T09:16:32;55.28;;;27.60;;
38312;SDS011;24114;52.260;6.714;2023-11-21T09:19:00;61.63;;;28.85;;
38312;SDS011;24114;52.260;6.714;2023-11-21T09:21:31;54.45;;;27.75;;
38312;SDS011;24114;52.260;6.714;2023-11-21T09:24:00;60.88;;;28.70;;
38312;SDS011;24114;52.260;6.714;2023-11-21T09:26:29;51.47;;;28.67;;
38312;SDS011;24114;52.260;6.714;2023-11-21T09:28:56;59.45;;;28.70;;
38312;SDS011;24114;52.260;6.714;2023-11-21T09:31:24;60.28;;;27.75;;
38312;SDS011;24114;52.260;6.714;2023-11-21T09:33:55;56.63;;;27.88;;
38312;SDS011;24114;52.260;6.714;2023-11-21T09:36:23;51.72;;;26.90;;
38312;SDS011;24114;52.260;6.714;2023-11-21T09:38:54;53.45;;;26.48;;
38312;SDS011;24114;52.260;6.714;2023-11-21T09:41:23;47.65;;;25.50;;
38312;SDS011;24114;52.260;6.714;2023-11-21T09:44:00;41.70;;;23.63;;
38312;SDS011;24114;52.260;6.714;2023-11-21T09:46:30;44.75;;;23.98;;
38312;SDS011;24114;52.260;6.714;2023-11-21T09:48:59;43.30;;;23.02;;
38312;SDS011;24114;52.260;6.714;2023-11-21T09:51:31;39.70;;;22.10;;
38312;SDS011;24114;52.260;6.714;2023-11-21T09:53:59;34.55;;;20.98;;
38312;SDS011;24114;52.260;6.714;2023-11-21T09:56:32;37.22;;;20.95;;
38312;SDS011;24114;52.260;6.714;2023-11-21T09:59:00;37.10;;;20.42;;
38312;SDS011;24114;52.260;6.714;2023-11-21T10:01:32;38.60;;;21.23;;
38312;SDS011;24114;52.260;6.714;2023-11-21T10:04:02;37.42;;;19.73;;
38312;SDS011;24114;52.260;6.714;2023-11-21T10:06:30;36.72;;;20.38;;
38312;SDS011;24114;52.260;6.714;2023-11-21T10:08:58;38.38;;;20.30;;
38312;SDS011;24114;52.260;6.714;2023-11-21T10:11:26;34.80;;;19.80;;
38312;SDS011;24114;52.260;6.714;2023-11-21T10:13:56;37.75;;;20.98;;
38312;SDS011;24114;52.260;6.714;2023-11-21T10:16:27;38.03;;;20.00;;
38312;SDS011;24114;52.260;6.714;2023-11-21T10:18:55;36.20;;;19.53;;
38312;SDS011;24114;52.260;6.714;2023-11-21T10:21:38;36.88;;;20.48;;
38312;SDS011;24114;52.260;6.714;2023-11-21T10:24:07;35.72;;;20.38;;
38312;SDS011;24114;52.260;6.714;2023-11-21T10:26:35;38.67;;;21.02;;
38312;SDS011;24114;52.260;6.714;2023-11-21T10:29:18;35.13;;;19.40;;
38312;SDS011;24114;52.260;6.714;2023-11-21T10:31:48;34.97;;;19.23;;
38312;SDS011;24114;52.260;6.714;2023-11-21T10:34:17;33.13;;;18.60;;
38312;SDS011;24114;52.260;6.714;2023-11-21T10:36:47;31.40;;;17.92;;
38312;SDS011;24114;52.260;6.714;2023-11-21T10:39:16;34.93;;;18.73;;
38312;SDS011;24114;52.260;6.714;2023-11-21T10:41:45;33.47;;;18.87;;
38312;SDS011;24114;52.260;6.714;2023-11-21T10:44:13;31.00;;;17.95;;
38312;SDS011;24114;52.260;6.714;2023-11-21T10:46:46;30.50;;;17.63;;
38312;SDS011;24114;52.260;6.714;2023-11-21T10:49:17;28.88;;;16.48;;
38312;SDS011;24114;52.260;6.714;2023-11-21T10:51:47;29.55;;;16.75;;
38312;SDS011;24114;52.260;6.714;2023-11-21T10:54:18;31.10;;;16.35;;
38312;SDS011;24114;52.260;6.714;2023-11-21T10:56:48;29.23;;;16.70;;
38312;SDS011;24114;52.260;6.714;2023-11-21T10:59:18;31.70;;;16.23;;
38312;SDS011;24114;52.260;6.714;2023-11-21T11:01:47;32.17;;;16.58;;
38312;SDS011;24114;52.260;6.714;2023-11-21T11:04:18;31.75;;;17.15;;
38312;SDS011;24114;52.260;6.714;2023-11-21T11:06:50;28.77;;;16.02;;
38312;SDS011;24114;52.260;6.714;2023-11-21T11:09:21;26.80;;;15.93;;
38312;SDS011;24114;52.260;6.714;2023-11-21T11:11:48;28.08;;;15.82;;
38312;SDS011;24114;52.260;6.714;2023-11-21T11:14:17;27.85;;;15.60;;
38312;SDS011;24114;52.260;6.714;2023-11-21T11:16:46;26.65;;;14.93;;
38312;SDS011;24114;52.260;6.714;2023-11-21T11:19:15;28.08;;;16.08;;
38312;SDS011;24114;52.260;6.714;2023-11-21T11:21:46;31.40;;;16.67;;
38312;SDS011;24114;52.260;6.714;2023-11-21T11:24:27;29.60;;;16.60;;
38312;SDS011;24114;52.260;6.714;2023-11-21T11:27:06;32.08;;;16.85;;
38312;SDS011;24114;52.260;6.714;2023-11-21T11:29:41;30.77;;;16.97;;
38312;SDS011;24114;52.260;6.714;2023-11-21T11:32:16;29.92;;;17.25;;
38312;SDS011;24114;52.260;6.714;2023-11-21T11:34:48;30.73;;;15.83;;
38312;SDS011;24114;52.260;6.714;2023-11-21T11:37:25;29.88;;;16.80;;
38312;SDS011;24114;52.260;6.714;2023-11-21T11:39:52;32.83;;;17.45;;
38312;SDS011;24114;52.260;6.714;2023-11-21T11:42:21;30.20;;;16.20;;
38312;SDS011;24114;52.260;6.714;2023-11-21T11:44:53;30.40;;;16.08;;
38312;SDS011;24114;52.260;6.714;2023-11-21T11:47:23;30.75;;;15.77;;
38312;SDS011;24114;52.260;6.714;2023-11-21T11:49:55;30.27;;;16.20;;
38312;SDS011;24114;52.260;6.714;2023-11-21T11:52:35;29.33;;;15.60;;
38312;SDS011;24114;52.260;6.714;2023-11-21T11:55:06;34.00;;;17.35;;
38312;SDS011;24114;52.260;6.714;2023-11-21T11:57:37;30.80;;;15.68;;
38312;SDS011;24114;52.260;6.714;2023-11-21T12:00:12;33.00;;;16.40;;
38312;SDS011;24114;52.260;6.714;2023-11-21T12:02:46;36.30;;;17.27;;
38312;SDS011;24114;52.260;6.714;2023-11-21T12:05:15;27.23;;;14.43;;
38312;SDS011;24114;52.260;6.714;2023-11-21T12:07:47;26.20;;;13.68;;
38312;SDS011;24114;52.260;6.714;2023-11-21T12:10:17;23.65;;;12.43;;
38312;SDS011;24114;52.260;6.714;2023-11-21T12:12:46;21.13;;;11.43;;
38312;SDS011;24114;52.260;6.714;2023-11-21T12:15:15;18.47;;;10.67;;
38312;SDS011;24114;52.260;6.714;2023-11-21T12:17:43;18.77;;;10.70;;
38312;SDS011;24114;52.260;6.714;2023-11-21T12:20:11;19.58;;;10.40;;
38312;SDS011;24114;52.260;6.714;2023-11-21T12:22:48;20.77;;;11.27;;
38312;SDS011;24114;52.260;6.714;2023-11-21T12:25:17;21.20;;;10.70;;
38312;SDS011;24114;52.260;6.714;2023-11-21T12:27:46;21.95;;;11.82;;
38312;SDS011;24114;52.260;6.714;2023-11-21T12:30:16;20.58;;;11.93;;
38312;SDS011;24114;52.260;6.714;2023-11-21T12:32:47;23.25;;;12.55;;
38312;SDS011;24114;52.260;6.714;2023-11-21T12:35:16;22.95;;;12.30;;
38312;SDS011;24114;52.260;6.714;2023-11-21T12:37:45;19.02;;;11.23;;
38312;SDS011;24114;52.260;6.714;2023-11-21T12:40:15;19.38;;;10.43;;
38312;SDS011;24114;52.260;6.714;2023-11-21T12:42:44;17.27;;;10.85;;
38312;SDS011;24114;52.260;6.714;2023-11-21T12:45:20;18.55;;;11.18;;
38312;SDS011;24114;52.260;6.714;2023-11-21T12:47:49;18.40;;;11.02;;
38312;SDS011;24114;52.260;6.714;2023-11-21T12:50:21;16.60;;;10.70;;
38312;SDS011;24114;52.260;6.714;2023-11-21T12:52:50;16.95;;;10.18;;
38312;SDS011;24114;52.260;6.714;2023-11-21T12:55:21;17.50;;;11.57;;
38312;SDS011;24114;52.260;6.714;2023-11-21T12:57:50;17.67;;;10.98;;
38312;SDS011;24114;52.260;6.714;2023-11-21T13:00:27;17.45;;;10.75;;
38312;SDS011;24114;52.260;6.714;2023-11-21T13:02:56;16.77;;;10.75;;
38312;SDS011;24114;52.260;6.714;2023-11-21T13:05:26;17.55;;;11.30;;
38312;SDS011;24114;52.260;6.714;2023-11-21T13:07:54;18.98;;;11.20;;
38312;SDS011;24114;52.260;6.714;2023-11-21T13:10:25;16.00;;;11.27;;
38312;SDS011;24114;52.260;6.714;2023-11-21T13:12:57;16.77;;;11.52;;
38312;SDS011;24114;52.260;6.714;2023-11-21T13:15:26;14.25;;;10.57;;
38312;SDS011;24114;52.260;6.714;2023-11-21T13:17:54;16.17;;;11.13;;
38312;SDS011;24114;52.260;6.714;2023-11-21T13:20:24;14.27;;;11.23;;
38312;SDS011;24114;52.260;6.714;2023-11-21T13:22:52;12.40;;;10.38;;
38312;SDS011;24114;52.260;6.714;2023-11-21T13:25:25;13.07;;;10.63;;
38312;SDS011;24114;52.260;6.714;2023-11-21T13:27:54;12.68;;;10.63;;
38312;SDS011;24114;52.260;6.714;2023-11-21T13:30:22;12.80;;;10.18;;
38312;SDS011;24114;52.260;6.714;2023-11-21T13:32:53;13.35;;;11.27;;
38312;SDS011;24114;52.260;6.714;2023-11-21T13:35:23;13.38;;;11.55;;
38312;SDS011;24114;52.260;6.714;2023-11-21T13:38:02;12.82;;;11.20;;
38312;SDS011;24114;52.260;6.714;2023-11-21T13:40:34;11.77;;;10.50;;
38312;SDS011;24114;52.260;6.714;2023-11-21T13:43:09;12.05;;;10.75;;
38312;SDS011;24114;52.260;6.714;2023-11-21T13:45:37;12.00;;;10.73;;
38312;SDS011;24114;52.260;6.714;2023-11-21T13:48:08;11.60;;;10.23;;
38312;SDS011;24114;52.260;6.714;2023-11-21T13:50:40;11.53;;;10.30;;
38312;SDS011;24114;52.260;6.714;2023-11-21T13:53:15;11.07;;;9.93;;
38312;SDS011;24114;52.260;6.714;2023-11-21T13:55:49;10.65;;;9.55;;
38312;SDS011;24114;52.260;6.714;2023-11-21T13:58:20;11.48;;;10.23;;
38312;SDS011;24114;52.260;6.714;2023-11-21T14:00:52;10.77;;;9.55;;
38312;SDS011;24114;52.260;6.714;2023-11-21T14:03:23;9.77;;;8.77;;
38312;SDS011;24114;52.260;6.714;2023-11-21T14:05:59;9.77;;;8.77;;
38312;SDS011;24114;52.260;6.714;2023-11-21T14:08:33;9.35;;;8.35;;
38312;SDS011;24114;52.260;6.714;2023-11-21T14:11:03;9.73;;;8.70;;
38312;SDS011;24114;52.260;6.714;2023-11-21T14:13:33;10.10;;;8.88;;
38312;SDS011;24114;52.260;6.714;2023-11-21T14:16:01;9.18;;;8.27;;
38312;SDS011;24114;52.260;6.714;2023-11-21T14:18:29;10.10;;;8.10;;
38312;SDS011;24114;52.260;6.714;2023-11-21T14:21:02;9.10;;;8.20;;
38312;SDS011;24114;52.260;6.714;2023-11-21T14:23:32;8.57;;;7.65;;
38312;SDS011;24114;52.260;6.714;2023-11-21T14:26:03;7.63;;;6.85;;
38312;SDS011;24114;52.260;6.714;2023-11-21T14:28:32;8.05;;;7.13;;
38312;SDS011;24114;52.260;6.714;2023-11-21T14:31:01;8.60;;;7.68;;
38312;SDS011;24114;52.260;6.714;2023-11-21T14:33:29;7.90;;;7.10;;
38312;SDS011;24114;52.260;6.714;2023-11-21T14:35:57;7.78;;;6.97;;